Time;durP1;ratioP1;P1;durP2;ratioP2;P2;SDS_P1;SDS_P2;PMS_P1;PMS_P2;Temp;Humidity;BMP_temperature;BMP_pressure;BME280_temperature;BME280_humidity;BME280_pressure;Samples;Min_cycle;Max_cycle;Signal;HPM_P1;HPM_P2
2022/05/26 00:01:16;;;;;;;10.15;6.22;;;15.40;72.30;;;;;;5079760;28;20040;-93
2022/05/26 00:03:43;;;;;;;6.63;5.53;;;15.50;72.30;;;;;;5060088;28;20059;-93
2022/05/26 00:06:11;;;;;;;14.40;8.00;;;15.40;72.20;;;;;;5077876;28;20048;-95
2022/05/26 00:08:39;;;;;;;12.25;6.05;;;15.50;72.30;;;;;;5051458;28;20087;-95
2022/05/26 00:11:09;;;;;;;14.88;6.95;;;15.50;72.20;;;;;;5078020;28;20052;-93
2022/05/26 00:13:36;;;;;;;10.10;5.43;;;15.50;72.20;;;;;;5077725;28;20044;-95
2022/05/26 00:16:02;;;;;;;10.68;5.55;;;15.50;72.10;;;;;;5080962;28;20494;-93
2022/05/26 00:18:28;;;;;;;12.13;6.43;;;15.60;72.10;;;;;;5080051;28;20147;-92
2022/05/26 00:20:54;;;;;;;15.13;7.35;;;15.50;72.00;;;;;;5095227;28;20045;-90
2022/05/26 00:23:20;;;;;;;12.77;6.55;;;15.60;72.30;;;;;;5098575;28;20044;-93
2022/05/26 00:25:46;;;;;;;10.65;5.32;;;15.60;72.30;;;;;;5094208;28;20463;-91
2022/05/26 00:28:11;;;;;;;17.20;6.38;;;15.60;72.30;;;;;;5095935;28;20044;-93
2022/05/26 00:30:37;;;;;;;18.52;7.40;;;15.60;72.40;;;;;;5092304;28;20052;-92
2022/05/26 00:33:05;;;;;;;12.75;5.68;;;15.60;72.50;;;;;;5098504;28;20098;-91
2022/05/26 00:35:34;;;;;;;16.23;6.93;;;15.60;72.40;;;;;;5111477;28;20043;-92
2022/05/26 00:38:04;;;;;;;13.35;5.53;;;15.60;72.30;;;;;;5079844;28;20128;-91
2022/05/26 00:40:31;;;;;;;13.88;5.53;;;15.60;72.10;;;;;;5090978;28;20131;-90
2022/05/26 00:42:58;;;;;;;14.63;5.70;;;15.70;72.10;;;;;;5099905;28;20080;-92
2022/05/26 00:45:29;;;;;;;16.75;5.93;;;15.70;72.00;;;;;;5114453;28;20075;-91
2022/05/26 00:48:21;;;;;;;23.27;8.07;;;15.70;72.00;;;;;;5105684;28;20048;-93
2022/05/26 00:50:54;;;;;;;18.20;6.45;;;15.70;72.20;;;;;;5102171;28;20055;-92
2022/05/26 00:53:31;;;;;;;24.13;7.60;;;15.70;72.10;;;;;;5090247;28;20090;-93
2022/05/26 00:56:07;;;;;;;20.17;6.50;;;15.70;72.40;;;;;;5064814;28;20061;-93
2022/05/26 00:58:40;;;;;;;15.70;5.25;;;15.70;72.50;;;;;;5080371;28;20451;-94
2022/05/26 01:01:06;;;;;;;20.63;7.47;;;15.70;72.20;;;;;;5082592;28;20093;-93
2022/05/26 01:03:45;;;;;;;24.08;7.90;;;15.70;72.10;;;;;;5082049;28;20048;-93
2022/05/26 01:06:16;;;;;;;16.98;5.80;;;15.70;72.30;;;;;;5080702;28;20041;-93
2022/05/26 01:08:55;;;;;;;18.52;6.53;;;15.70;72.20;;;;;;5087094;28;20052;-92
2022/05/26 01:11:23;;;;;;;22.10;7.07;;;15.70;72.20;;;;;;5100693;28;20048;-95
2022/05/26 01:13:55;;;;;;;19.55;6.70;;;15.70;72.10;;;;;;5093397;28;20080;-94
2022/05/26 01:16:37;;;;;;;19.10;7.25;;;15.70;72.10;;;;;;5079269;28;20056;-96
2022/05/26 01:19:40;;;;;;;22.15;6.78;;;15.70;72.10;;;;;;5078164;28;20160;-95
2022/05/26 01:22:22;;;;;;;22.65;5.78;;;15.70;72.00;;;;;;5062207;28;20078;-95
2022/05/26 01:25:16;;;;;;;20.52;6.43;;;15.70;71.80;;;;;;5077355;28;20556;-93
2022/05/26 01:27:45;;;;;;;18.40;7.13;;;15.70;71.80;;;;;;5077372;28;20053;-94
2022/05/26 01:30:17;;;;;;;20.08;6.80;;;15.70;71.90;;;;;;5090376;28;20048;-94
2022/05/26 01:40:19;;;;;;;18.85;6.60;;;15.70;71.90;;;;;;5057878;28;20135;-94
2022/05/26 01:43:14;;;;;;;20.65;6.25;;;15.60;71.80;;;;;;5058412;28;20044;-96
2022/05/26 01:45:55;;;;;;;19.65;6.38;;;15.70;71.90;;;;;;5058217;28;20052;-94
2022/05/26 01:48:29;;;;;;;21.15;7.00;;;15.60;71.80;;;;;;5041822;28;20056;-94
2022/05/26 01:51:15;;;;;;;20.75;6.88;;;15.70;71.90;;;;;;5057694;28;20473;-96
2022/05/26 01:54:02;;;;;;;21.02;6.68;;;15.70;71.90;;;;;;5040433;28;20053;-94
2022/05/26 01:56:34;;;;;;;18.83;6.53;;;15.70;72.70;;;;;;5058549;28;20048;-95
2022/05/26 01:59:09;;;;;;;22.63;7.18;;;15.70;72.30;;;;;;5057176;28;20138;-96
2022/05/26 02:01:40;;;;;;;21.50;6.40;;;15.70;72.30;;;;;;5074603;28;20099;-93
2022/05/26 02:04:11;;;;;;;18.77;5.90;;;15.70;72.30;;;;;;5074056;28;20063;-96
2022/05/26 02:06:42;;;;;;;23.55;6.38;;;15.70;72.10;;;;;;5059144;28;20041;-95
2022/05/26 02:09:23;;;;;;;33.53;8.90;;;15.70;72.10;;;;;;5057215;28;20080;-95
2022/05/26 02:12:03;;;;;;;17.00;5.88;;;15.60;72.30;;;;;;5057999;28;20073;-95
2022/05/26 02:15:04;;;;;;;26.38;8.57;;;15.70;72.40;;;;;;5059930;28;20128;-94
2022/05/26 02:17:34;;;;;;;19.85;5.82;;;15.70;72.50;;;;;;4963073;28;20442;-94
2022/05/26 02:20:08;;;;;;;20.38;6.43;;;15.60;72.40;;;;;;4977553;28;20082;-96
2022/05/26 02:23:01;;;;;;;21.80;5.30;;;15.60;72.30;;;;;;4977829;28;20174;-95
2022/05/26 02:25:28;;;;;;;22.75;7.47;;;15.60;72.00;;;;;;4961030;28;20055;-94
2022/05/26 02:27:55;;;;;;;23.35;6.63;;;15.70;72.30;;;;;;4976455;28;20105;-95
2022/05/26 02:30:25;;;;;;;21.90;7.15;;;15.60;72.30;;;;;;4977101;28;20127;-94
2022/05/26 02:32:53;;;;;;;22.63;5.75;;;15.70;72.80;;;;;;4977861;28;20061;-96
2022/05/26 02:38:44;;;;;;;23.25;7.43;;;15.70;72.30;;;;;;4978059;28;20046;-95
2022/05/26 02:41:11;;;;;;;26.58;6.25;;;15.60;72.30;;;;;;4977635;28;20093;-92
2022/05/26 02:43:37;;;;;;;20.15;6.22;;;15.50;72.30;;;;;;4961702;28;20059;-93
2022/05/26 02:46:26;;;;;;;23.67;6.85;;;15.60;72.50;;;;;;4977916;28;20711;-94
2022/05/26 02:49:16;;;;;;;24.48;6.05;;;15.60;72.40;;;;;;4964199;28;20062;-94
2022/05/26 02:51:41;;;;;;;20.42;5.63;;;15.60;72.50;;;;;;4980752;28;20062;-93
2022/05/26 02:54:32;;;;;;;26.27;7.15;;;15.60;72.30;;;;;;4995818;28;20045;-92
2022/05/26 02:57:10;;;;;;;24.77;6.38;;;15.60;72.20;;;;;;5044309;28;20161;-96
2022/05/26 02:59:57;;;;;;;19.25;6.15;;;15.60;72.30;;;;;;5058146;28;20139;-93
2022/05/26 03:02:29;;;;;;;19.35;5.85;;;15.60;72.00;;;;;;5058119;28;20057;-93
2022/05/26 03:05:15;;;;;;;22.48;5.88;;;15.60;72.10;;;;;;5072072;28;20138;-95
2022/05/26 03:07:44;;;;;;;20.85;6.03;;;15.60;72.00;;;;;;5097633;28;20571;-95
2022/05/26 03:10:10;;;;;;;20.23;5.20;;;15.60;71.90;;;;;;5239398;22;20028;-89
2022/05/26 03:12:37;;;;;;;17.05;4.47;;;15.60;71.70;;;;;;5062398;28;20055;-93
2022/05/26 03:15:05;;;;;;;17.85;5.10;;;15.60;71.60;;;;;;5038752;28;20527;-90
2022/05/26 03:17:31;;;;;;;16.48;4.18;;;15.60;71.50;;;;;;5056821;28;20057;-94
2022/05/26 03:19:57;;;;;;;14.73;4.68;;;15.60;71.30;;;;;;5043116;28;20075;-96
2022/05/26 03:22:22;;;;;;;13.02;4.55;;;15.60;71.40;;;;;;5063075;28;20075;-95
2022/05/26 03:24:48;;;;;;;19.77;5.22;;;15.60;71.40;;;;;;5057004;28;20483;-95
2022/05/26 03:27:14;;;;;;;14.65;4.45;;;15.60;71.30;;;;;;5039179;28;20056;-94
2022/05/26 03:32:09;;;;;;;12.52;4.15;;;15.60;71.30;;;;;;5124659;22;21284;-92
2022/05/26 03:42:50;;;;;;;14.93;4.25;;;15.60;70.70;;;;;;5067131;28;20484;-95
2022/05/26 03:45:22;;;;;;;14.32;3.97;;;15.60;70.60;;;;;;5057461;28;20057;-93
2022/05/26 03:47:49;;;;;;;13.23;4.50;;;15.50;70.60;;;;;;5046268;28;20045;-93
2022/05/26 03:50:14;;;;;;;12.40;3.33;;;15.60;70.50;;;;;;5058536;28;20404;-95
2022/05/26 03:52:40;;;;;;;16.90;3.30;;;15.60;70.40;;;;;;5057467;28;20118;-95
2022/05/26 03:55:06;;;;;;;10.88;2.75;;;15.50;70.20;;;;;;5065822;28;20075;-93
2022/05/26 03:57:32;;;;;;;8.30;2.75;;;15.50;70.20;;;;;;5066102;28;20116;-88
2022/05/26 03:59:58;;;;;;;11.18;3.55;;;15.50;70.10;;;;;;5065251;28;20057;-95
2022/05/26 04:02:25;;;;;;;10.95;2.65;;;15.50;70.00;;;;;;5064041;28;20480;-94
2022/05/26 04:04:51;;;;;;;6.95;2.30;;;15.50;70.00;;;;;;5067936;28;20041;-94
2022/05/26 04:07:16;;;;;;;12.57;3.15;;;15.50;69.80;;;;;;5044339;28;20045;-91
2022/05/26 04:09:42;;;;;;;10.13;2.83;;;15.50;69.60;;;;;;5077509;28;20487;-96
2022/05/26 04:12:10;;;;;;;9.88;2.97;;;15.50;69.40;;;;;;5063921;28;20053;-96
2022/05/26 04:14:36;;;;;;;9.40;2.17;;;15.50;69.40;;;;;;5050583;28;20076;-93
2022/05/26 04:17:02;;;;;;;7.15;2.00;;;15.40;69.40;;;;;;5042549;28;20131;-93
2022/05/26 04:20:07;;;;;;;9.77;2.80;;;15.50;69.40;;;;;;5044584;28;20392;-95
2022/05/26 04:22:33;;;;;;;7.07;2.45;;;15.40;69.10;;;;;;5041724;28;20074;-92
2022/05/26 04:24:59;;;;;;;9.35;2.65;;;15.40;69.20;;;;;;5041245;28;20492;-95
2022/05/26 04:27:29;;;;;;;9.00;2.53;;;15.40;69.30;;;;;;5058761;28;20045;-95
2022/05/26 04:29:55;;;;;;;7.03;1.95;;;15.40;69.20;;;;;;5059214;28;20049;-96
2022/05/26 04:32:21;;;;;;;6.85;2.20;;;15.40;69.10;;;;;;5058491;28;20148;-91
2022/05/26 04:34:48;;;;;;;7.93;2.03;;;15.40;69.10;;;;;;5058130;28;20049;-91
2022/05/26 04:37:23;;;;;;;5.63;2.00;;;15.40;69.00;;;;;;5058108;28;20152;-90
2022/05/26 04:39:50;;;;;;;6.50;1.65;;;15.40;68.70;;;;;;5058172;28;20049;-91
2022/05/26 04:42:17;;;;;;;6.00;2.00;;;15.40;68.80;;;;;;5040501;28;20053;-89
2022/05/26 04:44:44;;;;;;;7.53;1.60;;;15.40;68.80;;;;;;5040182;28;20057;-91
2022/05/26 04:47:12;;;;;;;6.82;1.75;;;15.40;68.90;;;;;;5040100;28;20087;-92
2022/05/26 04:53:18;;;;;;;6.47;1.63;;;15.40;68.70;;;;;;5058609;28;20032;-92
2022/05/26 04:55:45;;;;;;;6.20;1.60;;;15.40;68.80;;;;;;5057947;28;20045;-93
2022/05/26 04:58:11;;;;;;;7.40;1.67;;;15.40;68.90;;;;;;5057819;28;20057;-89
2022/05/26 05:00:37;;;;;;;6.65;1.52;;;15.40;68.80;;;;;;5039550;28;20049;-89
2022/05/26 05:03:03;;;;;;;6.30;1.23;;;15.30;68.80;;;;;;5057150;28;20376;-91
2022/05/26 05:05:29;;;;;;;8.25;2.17;;;15.40;69.20;;;;;;5040008;28;20107;-89
2022/05/26 05:07:54;;;;;;;7.57;1.83;;;15.50;69.80;;;;;;5057170;28;20412;-88
2022/05/26 05:10:20;;;;;;;6.80;1.83;;;15.70;70.50;;;;;;5074371;28;20048;-88
2022/05/26 05:12:48;;;;;;;6.38;1.63;;;15.90;70.40;;;;;;5043772;28;20048;-87
2022/05/26 05:15:23;;;;;;;7.65;1.67;;;16.20;70.20;;;;;;5056487;28;20605;-88
2022/05/26 05:17:49;;;;;;;5.30;1.42;;;16.60;69.80;;;;;;5038951;28;20057;-87
2022/05/26 05:20:15;;;;;;;4.07;1.20;;;17.00;69.40;;;;;;5056159;28;20071;-88
2022/05/26 05:22:51;;;;;;;6.25;1.42;;;17.50;68.30;;;;;;5056835;28;20091;-87
2022/05/26 05:25:22;;;;;;;6.57;1.25;;;17.90;66.30;;;;;;5035503;28;20546;-87
2022/05/26 05:28:06;;;;;;;6.70;1.40;;;18.40;65.20;;;;;;5056656;28;20061;-90
2022/05/26 05:30:39;;;;;;;4.50;1.70;;;18.80;64.00;;;;;;5058350;28;20068;-88
2022/05/26 05:33:12;;;;;;;4.90;1.13;;;19.30;62.90;;;;;;5023212;28;20529;-87
2022/05/26 05:35:50;;;;;;;5.23;1.00;;;19.60;61.50;;;;;;5055989;28;20061;-87
2022/05/26 05:38:17;;;;;;;4.50;1.02;;;20.00;60.30;;;;;;5056094;28;20127;-87
2022/05/26 05:40:43;;;;;;;5.85;1.63;;;20.40;60.40;;;;;;5056529;28;20092;-88
2022/05/26 05:43:10;;;;;;;6.65;1.50;;;20.70;59.10;;;;;;5038910;28;20052;-88
2022/05/26 05:45:35;;;;;;;5.03;0.90;;;21.00;58.10;;;;;;5056019;28;20053;-88
2022/05/26 05:48:01;;;;;;;5.93;1.20;;;21.30;57.40;;;;;;5056678;28;20136;-88
2022/05/26 05:50:27;;;;;;;2.67;1.05;;;21.50;56.30;;;;;;5056326;28;20065;-88
2022/05/26 05:52:53;;;;;;;4.10;1.42;;;21.60;55.60;;;;;;5057294;28;20048;-88
2022/05/26 05:55:18;;;;;;;4.03;0.80;;;21.60;54.90;;;;;;5057053;28;20396;-89
2022/05/26 05:57:44;;;;;;;2.33;0.90;;;21.50;55.00;;;;;;5058219;28;20057;-87
2022/05/26 06:00:10;;;;;;;2.75;0.68;;;21.50;55.10;;;;;;5058600;28;20068;-87
2022/05/26 06:02:36;;;;;;;5.28;1.35;;;21.40;54.70;;;;;;5026710;28;20049;-92
2022/05/26 06:05:03;;;;;;;3.35;0.82;;;21.40;54.60;;;;;;5059824;28;20045;-88
2022/05/26 06:07:29;;;;;;;5.35;1.23;;;21.30;54.50;;;;;;5056140;28;20045;-91
2022/05/26 06:09:54;;;;;;;4.65;1.25;;;21.20;54.80;;;;;;5037963;28;20143;-89
2022/05/26 06:12:20;;;;;;;5.75;0.85;;;21.10;54.90;;;;;;5037802;28;20057;-88
2022/05/26 06:14:46;;;;;;;4.07;0.73;;;21.10;55.30;;;;;;5056141;28;20124;-88
2022/05/26 06:17:12;;;;;;;4.25;0.73;;;21.00;55.10;;;;;;5037377;28;20095;-87
2022/05/26 06:19:39;;;;;;;3.63;0.82;;;20.90;55.10;;;;;;5037487;28;20053;-88
2022/05/26 06:22:17;;;;;;;2.30;0.60;;;20.90;55.00;;;;;;5055079;28;20057;-88
2022/05/26 06:24:43;;;;;;;3.80;1.23;;;20.80;55.30;;;;;;5037966;28;20068;-90
2022/05/26 06:29:57;;;;;;;3.72;0.70;;;20.70;55.40;;;;;;5055875;28;20395;-89
2022/05/26 06:38:08;;;;;;;7.30;0.95;;;20.50;55.20;;;;;;4978824;28;20105;-89
2022/05/26 06:40:35;;;;;;;3.67;0.50;;;20.40;55.00;;;;;;4994703;28;20164;-91
2022/05/26 06:43:00;;;;;;;3.25;0.70;;;20.20;55.20;;;;;;4995095;28;20061;-89
2022/05/26 06:45:26;;;;;;;3.70;1.00;;;20.20;55.40;;;;;;4995337;28;20054;-93
2022/05/26 06:47:52;;;;;;;3.33;1.17;;;20.10;55.70;;;;;;4994528;28;20065;-90
2022/05/26 06:50:18;;;;;;;4.00;0.75;;;20.00;55.60;;;;;;4995492;28;20074;-90
2022/05/26 06:52:44;;;;;;;5.90;0.95;;;19.90;55.70;;;;;;4995375;28;20097;-95
2022/05/26 06:55:10;;;;;;;3.22;1.10;;;19.70;55.70;;;;;;4994668;28;20667;-95
2022/05/26 06:57:35;;;;;;;5.53;1.15;;;19.60;55.80;;;;;;4995208;28;20138;-94
2022/05/26 07:00:04;;;;;;;4.38;0.80;;;19.60;56.10;;;;;;4979814;28;20090;-91
2022/05/26 07:02:30;;;;;;;4.50;1.27;;;19.50;56.50;;;;;;4999323;28;20058;-96
2022/05/26 07:05:14;;;;;;;3.35;1.00;;;19.40;56.90;;;;;;4983312;28;20061;-95
2022/05/26 07:07:40;;;;;;;;;;;19.30;56.60;;;;;;4983826;28;20575;-90
2022/05/26 07:10:08;;;;;;;5.15;0.90;;;19.10;56.70;;;;;;4985434;28;19977;-93
2022/05/26 07:12:34;;;;;;;5.15;0.90;;;19.00;56.90;;;;;;4985004;28;20085;-96
2022/05/26 07:15:00;;;;;;;4.40;1.30;;;18.90;56.70;;;;;;5064139;28;20391;-93
2022/05/26 07:17:26;;;;;;;5.00;1.23;;;18.80;57.00;;;;;;5043287;28;20148;-95
2022/05/26 07:23:34;;;;;;;5.18;1.15;;;18.70;56.90;;;;;;5064383;28;20055;-96
2022/05/26 07:26:03;;;;;;;4.60;0.65;;;18.60;57.20;;;;;;5070355;28;20139;-96
2022/05/26 07:28:29;;;;;;;4.28;0.82;;;18.60;57.20;;;;;;5072037;28;20036;-93
2022/05/26 07:30:54;;;;;;;3.63;0.70;;;18.50;56.90;;;;;;5070107;28;20064;-94
2022/05/26 07:33:20;;;;;;;2.78;0.85;;;18.50;56.80;;;;;;5071520;28;20123;-95
2022/05/26 07:35:46;;;;;;;3.33;0.70;;;18.40;57.20;;;;;;5066303;28;20049;-95
2022/05/26 07:41:16;;;;;;;3.88;1.15;;;18.50;57.40;;;;;;5067423;28;20052;-96
2022/05/26 07:43:54;;;;;;;4.47;0.80;;;18.50;56.50;;;;;;5065189;28;20151;-96
2022/05/26 07:46:21;;;;;;;3.10;0.70;;;18.40;56.70;;;;;;5047724;28;20056;-95
2022/05/26 07:48:48;;;;;;;3.70;0.73;;;18.40;56.70;;;;;;5056475;28;20041;-96
2022/05/26 07:51:29;;;;;;;5.63;1.00;;;18.50;56.50;;;;;;5041796;28;20503;-96
2022/05/26 07:53:54;;;;;;;3.45;0.93;;;18.60;56.70;;;;;;5040788;28;20049;-95
2022/05/26 07:56:20;;;;;;;4.47;1.05;;;18.60;56.60;;;;;;5057530;28;20175;-93
2022/05/26 07:58:47;;;;;;;2.92;0.55;;;18.70;56.10;;;;;;5039562;28;20430;-95
2022/05/26 08:01:14;;;;;;;3.65;0.98;;;18.70;56.00;;;;;;5063872;28;20080;-96
2022/05/26 08:03:39;;;;;;;4.85;1.35;;;18.80;56.30;;;;;;5043041;28;20053;-96
2022/05/26 08:09:46;;;;;;;4.20;0.93;;;19.20;54.70;;;;;;5060123;28;20153;-93
2022/05/26 08:12:13;;;;;;;2.58;0.80;;;19.30;54.80;;;;;;5055652;28;20081;-90
2022/05/26 08:14:41;;;;;;;4.45;0.70;;;19.40;54.20;;;;;;5037333;28;20049;-91
2022/05/26 08:17:08;;;;;;;2.50;0.63;;;19.60;54.70;;;;;;5054100;28;20131;-90
2022/05/26 08:20:11;;;;;;;3.88;0.63;;;19.90;54.70;;;;;;5036923;28;20045;-90
2022/05/26 08:22:36;;;;;;;4.47;0.95;;;20.00;53.20;;;;;;5036802;28;20110;-90
2022/05/26 08:25:03;;;;;;;4.13;0.85;;;20.20;53.60;;;;;;5054165;28;20040;-91
2022/05/26 08:27:28;;;;;;;3.88;0.75;;;20.40;53.30;;;;;;5053739;28;20384;-92
2022/05/26 08:29:56;;;;;;;5.53;0.88;;;20.50;53.60;;;;;;5036185;28;20060;-91
2022/05/26 08:32:23;;;;;;;2.03;0.50;;;20.60;53.10;;;;;;5053353;28;20106;-87
2022/05/26 08:38:56;;;;;;;3.30;1.05;;;21.00;52.90;;;;;;5053415;28;20140;-88
2022/05/26 08:41:30;;;;;;;4.55;0.82;;;21.10;51.70;;;;;;5053267;28;20080;-91
2022/05/26 08:43:58;;;;;;;3.90;0.60;;;21.30;51.20;;;;;;5054435;28;20056;-86
2022/05/26 08:46:32;;;;;;;2.72;0.80;;;21.40;51.20;;;;;;5056105;28;20091;-91
2022/05/26 08:49:07;;;;;;;;;;;21.50;50.30;;;;;;5039788;28;20049;-90
2022/05/26 08:51:59;;;;;;;2.63;0.60;;;21.70;51.30;;;;;;5056921;28;19920;-90
2022/05/26 08:54:37;;;;;;;3.78;0.60;;;21.90;49.50;;;;;;5057166;28;20513;-88
2022/05/26 08:57:05;;;;;;;3.58;1.13;;;22.00;49.00;;;;;;5027829;28;20127;-89
2022/05/26 08:59:39;;;;;;;3.50;1.02;;;22.00;48.00;;;;;;5049574;28;20171;-90
2022/05/26 09:02:09;;;;;;;3.55;0.70;;;22.00;46.80;;;;;;5057068;28;20049;-90
2022/05/26 09:04:35;;;;;;;2.53;0.75;;;22.00;47.10;;;;;;5036733;28;20064;-88
2022/05/26 09:12:56;;;;;;;2.58;0.50;;;22.00;45.40;;;;;;5045150;28;20067;-86
2022/05/26 09:15:22;;;;;;;3.50;0.73;;;21.90;45.30;;;;;;5054149;28;20085;-87
2022/05/26 09:17:48;;;;;;;2.60;0.73;;;21.80;45.90;;;;;;5056199;28;20049;-86
2022/05/26 09:20:28;;;;;;;2.53;0.50;;;21.80;46.60;;;;;;5054897;28;20092;-87
2022/05/26 09:22:53;;;;;;;3.58;0.73;;;21.80;46.10;;;;;;5056022;28;20057;-86
2022/05/26 09:25:42;;;;;;;2.60;0.60;;;21.80;46.20;;;;;;5038122;28;20071;-86
2022/05/26 09:28:10;;;;;;;2.00;0.60;;;21.80;46.90;;;;;;5019031;28;20560;-86
2022/05/26 09:30:36;;;;;;;2.97;0.88;;;21.80;46.10;;;;;;5029756;28;20049;-85
2022/05/26 09:33:15;;;;;;;3.28;0.77;;;21.80;47.10;;;;;;5033113;28;20572;-85
2022/05/26 09:35:41;;;;;;;3.10;0.70;;;21.80;46.30;;;;;;5033316;28;20053;-87
2022/05/26 09:38:17;;;;;;;4.07;0.80;;;21.70;46.00;;;;;;5047035;28;20059;-83
2022/05/26 09:40:46;;;;;;;3.75;0.60;;;21.60;46.60;;;;;;5034481;28;20560;-81
2022/05/26 09:43:26;;;;;;;2.40;0.45;;;21.60;47.00;;;;;;5035735;28;20057;-82
2022/05/26 09:46:01;;;;;;;3.28;0.90;;;21.50;47.40;;;;;;5053520;28;20423;-83
2022/05/26 09:48:32;;;;;;;4.45;0.70;;;21.50;48.10;;;;;;5035607;28;20144;-84
2022/05/26 09:51:24;;;;;;;2.47;0.73;;;21.60;48.30;;;;;;5033965;28;20073;-84
2022/05/26 09:53:52;;;;;;;3.47;0.77;;;21.60;48.60;;;;;;5034986;28;20053;-86
2022/05/26 09:56:40;;;;;;;3.42;0.70;;;21.60;48.50;;;;;;5033032;28;20045;-84
2022/05/26 09:59:32;;;;;;;3.55;0.82;;;21.50;48.00;;;;;;5035445;28;20061;-83
2022/05/26 10:02:05;;;;;;;3.92;0.70;;;21.50;48.40;;;;;;5031512;28;20049;-82
2022/05/26 10:04:53;;;;;;;2.92;0.75;;;21.50;48.40;;;;;;5033469;28;20089;-80
2022/05/26 10:07:39;;;;;;;3.97;0.70;;;21.40;48.60;;;;;;5033057;28;20068;-81
2022/05/26 10:10:29;;;;;;;4.05;0.98;;;21.30;48.30;;;;;;5034720;28;20554;-87
2022/05/26 10:13:23;;;;;;;5.05;0.70;;;21.30;48.60;;;;;;5015214;28;20050;-86
2022/05/26 10:15:52;;;;;;;2.70;0.80;;;21.30;48.60;;;;;;5020215;28;20050;-84
2022/05/26 10:18:29;;;;;;;5.35;1.15;;;21.20;49.30;;;;;;5041481;28;20077;-87
2022/05/26 10:21:05;;;;;;;2.75;0.90;;;21.30;49.90;;;;;;5040468;28;20077;-86
2022/05/26 10:23:49;;;;;;;4.78;1.30;;;21.30;50.10;;;;;;5017186;28;20062;-83
2022/05/26 10:26:38;;;;;;;5.07;1.00;;;21.30;50.30;;;;;;5028558;28;20077;-86
2022/05/26 10:29:19;;;;;;;3.70;0.90;;;21.30;50.40;;;;;;5035581;28;20389;-87
2022/05/26 10:32:14;;;;;;;3.67;0.93;;;21.30;50.80;;;;;;5030848;28;20093;-85
2022/05/26 10:35:07;;;;;;;6.15;1.75;;;21.20;51.00;;;;;;4952543;28;20074;-85
2022/05/26 10:37:48;;;;;;;4.45;1.13;;;21.20;51.60;;;;;;4952401;29;20055;-86
2022/05/26 10:40:46;;;;;;;8.57;1.48;;;21.20;51.80;;;;;;4953592;29;20048;-87
2022/05/26 10:43:23;;;;;;;4.05;0.93;;;21.20;52.00;;;;;;4944632;29;20047;-84
2022/05/26 10:45:51;;;;;;;5.43;1.50;;;21.20;52.20;;;;;;4955359;29;20138;-83
2022/05/26 10:48:38;;;;;;;5.60;1.48;;;21.20;52.30;;;;;;4955409;29;20070;-83
2022/05/26 10:51:18;;;;;;;3.55;0.93;;;21.30;52.00;;;;;;4955831;29;20617;-85
2022/05/26 10:53:53;;;;;;;4.40;1.50;;;21.30;52.10;;;;;;4957803;29;20051;-84
2022/05/26 10:56:36;;;;;;;4.13;1.30;;;21.30;51.90;;;;;;4953693;29;20110;-82
2022/05/26 10:59:20;;;;;;;4.38;1.42;;;21.40;51.60;;;;;;4936622;29;20086;-82
2022/05/26 11:01:57;;;;;;;2.78;0.98;;;21.40;51.10;;;;;;4953841;28;20047;-84
2022/05/26 11:04:42;;;;;;;6.50;1.45;;;21.40;50.80;;;;;;4947789;29;20060;-84
2022/05/26 11:07:19;;;;;;;;;;;21.40;50.80;;;;;;4953919;28;20058;-83
2022/05/26 11:09:54;;;;;;;4.03;1.58;;;21.30;51.10;;;;;;4947536;29;19919;-84
2022/05/26 11:12:42;;;;;;;4.32;1.30;;;21.30;51.50;;;;;;5008001;28;20110;-85
2022/05/26 11:18:18;;;;;;;4.90;1.20;;;21.30;51.10;;;;;;5029328;28;20049;-83
2022/05/26 11:20:53;;;;;;;3.88;1.05;;;21.30;51.30;;;;;;5032630;28;20046;-86
2022/05/26 11:23:21;;;;;;;3.60;1.48;;;21.40;51.60;;;;;;5030060;28;20057;-82
2022/05/26 11:26:00;;;;;;;4.13;0.90;;;21.50;52.20;;;;;;5029078;28;20045;-85
2022/05/26 11:28:41;;;;;;;3.72;1.10;;;21.60;50.90;;;;;;5030874;28;20073;-86
2022/05/26 11:37:03;;;;;;;4.00;1.10;;;21.80;49.90;;;;;;5028469;28;20136;-83
2022/05/26 11:39:40;;;;;;;2.88;0.88;;;21.80;49.90;;;;;;5052784;28;20049;-82
2022/05/26 11:42:13;;;;;;;3.95;0.93;;;22.00;49.80;;;;;;5017206;28;20052;-84
2022/05/26 11:44:45;;;;;;;5.28;1.10;;;22.10;50.00;;;;;;5037931;28;20045;-82
2022/05/26 11:47:32;;;;;;;5.18;1.20;;;22.10;50.00;;;;;;5020568;28;20060;-83
2022/05/26 11:49:57;;;;;;;3.92;1.15;;;22.10;49.20;;;;;;5051094;28;20595;-81
2022/05/26 11:52:27;;;;;;;5.50;1.40;;;22.20;49.20;;;;;;5049335;28;20131;-78
2022/05/26 11:54:58;;;;;;;4.93;1.30;;;22.20;49.70;;;;;;5055440;28;20051;-81
2022/05/26 11:57:36;;;;;;;3.85;1.08;;;22.30;49.50;;;;;;5052727;28;20119;-81
2022/05/26 12:00:22;;;;;;;4.20;1.08;;;22.40;48.10;;;;;;5053169;28;20502;-82
2022/05/26 12:03:12;;;;;;;3.83;1.08;;;22.40;48.70;;;;;;5047553;28;20088;-81
2022/05/26 12:05:37;;;;;;;5.75;1.30;;;22.40;48.80;;;;;;5053389;28;20053;-83
2022/05/26 12:08:21;;;;;;;4.68;1.00;;;22.50;49.20;;;;;;5052829;28;20044;-81
2022/05/26 12:10:56;;;;;;;3.65;1.02;;;22.50;48.00;;;;;;5034473;28;20061;-81
2022/05/26 12:13:27;;;;;;;5.70;1.60;;;22.50;47.40;;;;;;5052153;28;20608;-81
2022/05/26 12:16:14;;;;;;;6.25;1.80;;;22.40;48.20;;;;;;5015138;28;20049;-82
2022/05/26 12:18:55;;;;;;;4.05;1.15;;;22.40;48.70;;;;;;5040730;28;20052;-84
2022/05/26 12:21:30;;;;;;;5.40;1.50;;;22.40;49.20;;;;;;5058723;28;20053;-84
2022/05/26 12:24:37;;;;;;;5.18;1.30;;;22.30;48.70;;;;;;5038699;28;20053;-81
2022/05/26 12:27:03;;;;;;;12.30;3.30;;;22.30;48.10;;;;;;5056642;28;20503;-81
2022/05/26 12:29:50;;;;;;;8.90;2.35;;;22.20;48.20;;;;;;5039138;28;20057;-82
2022/05/26 12:32:26;;;;;;;5.55;1.42;;;22.20;48.10;;;;;;5035209;28;20041;-82
2022/05/26 12:35:19;;;;;;;4.93;1.23;;;22.20;48.40;;;;;;5037942;28;20144;-82
2022/05/26 12:38:23;;;;;;;7.80;1.38;;;22.10;48.80;;;;;;5037021;28;20064;-83
2022/05/26 12:41:19;;;;;;;6.53;1.23;;;22.10;49.10;;;;;;5042212;28;20053;-81
2022/05/26 12:43:45;;;;;;;6.28;1.85;;;22.00;49.10;;;;;;5038166;28;20057;-82
2022/05/26 12:46:31;;;;;;;7.07;2.05;;;22.00;49.80;;;;;;5037647;28;20115;-82
2022/05/26 12:49:27;;;;;;;7.15;1.80;;;22.00;49.10;;;;;;5056701;28;20049;-83
2022/05/26 12:52:31;;;;;;;7.35;1.80;;;22.00;49.00;;;;;;5049248;28;20045;-83
2022/05/26 12:55:21;;;;;;;10.40;2.33;;;21.90;49.50;;;;;;4972808;28;20054;-83
2022/05/26 12:58:04;;;;;;;5.03;1.27;;;21.90;49.90;;;;;;4960150;28;20557;-82
2022/05/26 13:00:42;;;;;;;7.88;1.75;;;21.90;50.30;;;;;;4974025;28;20054;-81
2022/05/26 13:03:23;;;;;;;4.97;1.70;;;21.90;49.70;;;;;;4981683;28;20055;-82
2022/05/26 13:06:11;;;;;;;10.38;2.08;;;21.90;50.10;;;;;;4987545;28;20126;-83
2022/05/26 13:08:58;;;;;;;6.82;1.80;;;21.90;49.90;;;;;;4973093;28;20050;-83
2022/05/26 13:11:33;;;;;;;5.13;1.38;;;21.90;49.70;;;;;;4958129;28;20079;-81
2022/05/26 13:14:06;;;;;;;5.93;1.67;;;21.90;49.20;;;;;;4975062;28;20055;-80
2022/05/26 13:16:38;;;;;;;5.93;1.33;;;21.90;49.10;;;;;;4965272;28;20059;-82
2022/05/26 13:19:14;;;;;;;5.22;1.23;;;21.90;49.10;;;;;;4982154;28;20047;-83
2022/05/26 13:21:45;;;;;;;5.28;1.60;;;21.90;49.20;;;;;;4972437;28;20054;-83
2022/05/26 13:24:19;;;;;;;3.45;1.10;;;21.90;48.80;;;;;;4984984;28;20112;-81
2022/05/26 13:26:46;;;;;;;6.53;1.50;;;21.90;48.60;;;;;;4982022;28;20138;-81
2022/05/26 13:29:17;;;;;;;9.18;1.88;;;21.80;48.60;;;;;;4976784;28;20054;-80
2022/05/26 13:34:30;;;;;;;6.68;1.23;;;21.80;48.90;;;;;;5052927;28;20053;-81
2022/05/26 13:37:02;;;;;;;6.95;1.45;;;21.80;49.20;;;;;;5071780;28;20095;-80
2022/05/26 13:39:28;;;;;;;4.13;1.60;;;21.70;49.10;;;;;;5059574;28;20044;-82
2022/05/26 13:41:54;;;;;;;10.55;2.30;;;21.70;49.30;;;;;;5035219;28;20080;-82
2022/05/26 13:44:42;;;;;;;7.88;1.73;;;21.60;48.90;;;;;;5047153;28;20041;-82
2022/05/26 13:47:12;;;;;;;7.40;1.60;;;21.60;48.60;;;;;;5029245;28;20533;-81
2022/05/26 13:49:43;;;;;;;6.20;2.03;;;21.50;49.40;;;;;;5034662;28;20057;-81
2022/05/26 13:52:14;;;;;;;7.43;1.80;;;21.50;49.80;;;;;;5056535;28;20094;-82
2022/05/26 13:54:51;;;;;;;7.07;1.55;;;21.50;49.80;;;;;;5056833;28;20153;-82
2022/05/26 13:57:31;;;;;;;9.07;1.58;;;21.50;49.70;;;;;;5071613;28;20048;-86
2022/05/26 14:00:07;;;;;;;9.52;2.42;;;21.40;49.90;;;;;;5036110;28;20042;-84
2022/05/26 14:02:36;;;;;;;6.00;2.20;;;21.40;50.20;;;;;;5024340;28;20114;-88
2022/05/26 14:05:13;;;;;;;7.85;1.77;;;21.40;50.20;;;;;;5056062;28;20476;-85
2022/05/26 14:08:00;;;;;;;6.72;1.92;;;21.40;50.40;;;;;;5024277;28;20102;-89
2022/05/26 14:10:51;;;;;;;7.18;1.60;;;21.40;50.20;;;;;;5030319;28;20056;-85
2022/05/26 14:13:20;;;;;;;6.07;1.75;;;21.30;50.50;;;;;;5023427;28;20044;-86
2022/05/26 14:15:50;;;;;;;7.82;2.30;;;21.20;50.00;;;;;;5061727;28;20088;-87
2022/05/26 14:18:24;;;;;;;6.40;1.50;;;21.20;50.00;;;;;;5057329;28;20064;-87
2022/05/26 14:21:25;;;;;;;6.88;1.70;;;21.10;49.90;;;;;;5059014;28;20045;-85
2022/05/26 14:24:18;;;;;;;5.55;1.55;;;21.10;50.20;;;;;;4953598;28;20097;-89